Portada
METAR-TAF:

METAR-TAF

Aeroports :

Puerto Maldonado, Perú

latitud: 12-38S, longitud: 069-12W, altitud: 265 m

Observació

L'informe es va fer fa 48 minuts, a les 12:00 UTC
Vent 3 kt del Nord/Nord-Est, variant entre Nord i Est
Temperatura 24°C
Humitat 94%
Pressió 1009 hPa
Visibilitat 10 km o més
Núvols disperses a una alçada de 1000 ft
Cel ennuvolat a una alçada de 12000 ft

METAR: SPTU 131200Z 02003KT 360V080 9999 SCT010 BKN120 24/23 Q1009 RMK TN22.9 BIRD HAZARD RWY 01/19 PP000

Hora: 07:48 (12:48 UTC)

Pronòstic

L'informe es va fer fa 1 hora i 48 minuts, a les 11:00 UTC
Pronòstic vàlid del 13 a les 12 UTC al 14 a les 12 UTC
Vent 3 kt del Nord
Visibilitat 10 km o més
sense núvols per sota de 1500 mi sense presència de cumulonimbus.
Temporalment
l' 13 a les 18 UTC al 13 a les 22 UTC
Vent 10 kt del Nord/Nord-Oest

TAF: SPTU 131100Z 1312/1412 36003KT CAVOK TX32/1319Z TN23/1411Z TEMPO 1318/1322 33010KT

Observacions i pronòstics meteorològics de més de 4000 aeroports (METAR i TAF).

Les estacions disponibles són els punts grocs i vermells al mapa.

Posi el ratolí al punt desitjat per veure el nom de l'estació.

Feu clic per veure les observacions i els pronòstics meteorològics.

Per canviar el mapa: feu clic els botons verds amb una creu de color negre per apropar; al botó verd amb un guió per allunyar la imatge; o en les fletxes verdes per a mapes adjacents.


METAR-TAF: